createdAt,value
2022-09-30T00:01:32.756Z,8.00
2022-09-30T00:04:01.912Z,7.57
2022-09-30T00:06:30.307Z,7.03
2022-09-30T00:08:58.198Z,9.00
2022-09-30T00:11:27.300Z,6.63
2022-09-30T00:13:55.605Z,9.35
2022-09-30T00:16:23.616Z,9.50
2022-09-30T00:18:50.829Z,8.88
2022-09-30T00:21:18.975Z,7.72
2022-09-30T00:23:46.028Z,9.07
2022-09-30T00:26:14.266Z,9.40
2022-09-30T00:28:42.074Z,6.93
2022-09-30T00:31:13.477Z,9.40
2022-09-30T00:33:40.904Z,8.63
2022-09-30T00:36:07.767Z,8.77
2022-09-30T00:38:35.918Z,8.73
2022-09-30T00:41:03.534Z,9.43
2022-09-30T00:43:42.525Z,10.18
2022-09-30T00:46:19.318Z,9.90
2022-09-30T00:48:50.961Z,10.38
2022-09-30T00:51:19.003Z,9.75
2022-09-30T00:53:52.480Z,9.70
2022-09-30T00:56:21.391Z,9.40
2022-09-30T00:58:53.568Z,10.75
2022-09-30T01:01:22.396Z,11.95
2022-09-30T01:03:54.504Z,11.55
2022-09-30T01:06:22.740Z,10.27
2022-09-30T01:08:51.857Z,10.38
2022-09-30T01:11:19.058Z,11.05
2022-09-30T01:13:52.461Z,10.10
2022-09-30T01:16:37.429Z,11.45
2022-09-30T01:19:24.836Z,10.60
2022-09-30T01:22:11.061Z,10.65
2022-09-30T01:24:56.567Z,10.70
2022-09-30T01:27:33.634Z,11.70
2022-09-30T01:30:11.983Z,11.32
2022-09-30T01:33:04.069Z,11.80
2022-09-30T01:35:45.227Z,10.60
2022-09-30T01:38:17.954Z,11.13
2022-09-30T01:40:49.667Z,11.77
2022-09-30T01:43:27.437Z,11.52
2022-09-30T01:45:58.741Z,12.27
2022-09-30T01:48:37.399Z,11.63
2022-09-30T01:51:10.594Z,12.27
2022-09-30T01:53:43.966Z,11.77
2022-09-30T01:56:17.773Z,11.82
2022-09-30T01:58:52.737Z,9.68
2022-09-30T02:01:31.795Z,11.50
2022-09-30T02:04:05.019Z,11.23
2022-09-30T02:06:37.966Z,10.48
2022-09-30T02:09:09.336Z,11.80
2022-09-30T02:11:38.313Z,11.15
2022-09-30T02:14:10.115Z,11.23
2022-09-30T02:16:42.650Z,13.05
2022-09-30T02:19:18.238Z,12.90
2022-09-30T02:21:50.824Z,11.65
2022-09-30T02:24:21.286Z,12.43
2022-09-30T02:26:49.964Z,11.70
2022-09-30T02:29:21.413Z,14.00
2022-09-30T02:31:52.468Z,12.40
2022-09-30T02:34:23.270Z,12.82
2022-09-30T02:36:55.112Z,12.88
2022-09-30T02:39:29.803Z,13.18
2022-09-30T02:42:02.552Z,12.52
2022-09-30T02:44:31.854Z,14.18
2022-09-30T02:47:06.800Z,14.40
2022-09-30T02:49:40.230Z,14.95
2022-09-30T02:52:16.142Z,12.02
2022-09-30T02:54:51.832Z,13.18
2022-09-30T02:57:26.467Z,12.45
2022-09-30T02:59:53.444Z,12.93
2022-09-30T03:02:21.270Z,13.60
2022-09-30T03:04:50.885Z,13.25
2022-09-30T03:07:18.256Z,13.77
2022-09-30T03:09:45.203Z,12.23
2022-09-30T03:12:24.080Z,12.48
2022-09-30T03:15:28.772Z,12.82
2022-09-30T03:18:07.404Z,13.30
2022-09-30T03:20:46.873Z,12.60
2022-09-30T03:23:31.227Z,11.98
2022-09-30T03:28:36.190Z,11.35
2022-09-30T03:31:11.376Z,12.40
2022-09-30T03:33:47.790Z,13.18
2022-09-30T03:36:25.121Z,13.52
2022-09-30T03:39:01.189Z,13.98
2022-09-30T03:41:34.481Z,14.38
2022-09-30T03:44:07.557Z,15.20
2022-09-30T03:46:38.363Z,13.77
2022-09-30T03:49:10.332Z,14.55
2022-09-30T03:51:39.805Z,14.93
2022-09-30T03:54:10.235Z,13.93
2022-09-30T03:56:43.296Z,14.02
2022-09-30T03:59:23.041Z,14.82
2022-09-30T04:01:50.024Z,14.00
2022-09-30T04:04:17.034Z,16.80
2022-09-30T04:06:45.348Z,16.20
2022-09-30T04:09:12.216Z,15.38
2022-09-30T04:11:39.208Z,16.13
2022-09-30T04:14:06.202Z,14.32
2022-09-30T04:16:34.313Z,16.00
2022-09-30T04:19:01.469Z,14.38
2022-09-30T04:21:28.904Z,15.73
2022-09-30T04:23:57.241Z,15.65
2022-09-30T04:26:24.108Z,16.27
2022-09-30T04:28:52.692Z,16.42
2022-09-30T04:31:21.360Z,15.43
2022-09-30T04:33:48.332Z,13.75
2022-09-30T04:36:15.130Z,15.15
2022-09-30T04:38:41.980Z,16.35
2022-09-30T04:41:16.079Z,16.25
2022-09-30T04:43:47.011Z,17.65
2022-09-30T04:46:14.046Z,15.45
2022-09-30T04:48:40.833Z,16.83
2022-09-30T04:51:07.817Z,16.58
2022-09-30T04:53:34.654Z,17.63
2022-09-30T04:56:02.317Z,16.77
2022-09-30T04:58:36.679Z,16.67
2022-09-30T05:01:05.652Z,16.75
2022-09-30T05:03:33.013Z,16.08
2022-09-30T05:06:00.052Z,16.40
2022-09-30T05:08:27.267Z,17.05
2022-09-30T05:10:55.381Z,17.27
2022-09-30T05:13:22.185Z,15.52
2022-09-30T05:15:50.602Z,16.20
2022-09-30T05:18:17.531Z,17.15
2022-09-30T05:20:44.270Z,15.52
2022-09-30T05:23:11.755Z,15.27
2022-09-30T05:25:38.531Z,15.60
2022-09-30T05:28:05.348Z,14.18
2022-09-30T05:30:32.099Z,14.70
2022-09-30T05:33:00.330Z,16.15
2022-09-30T05:35:27.091Z,15.93
2022-09-30T05:37:53.871Z,15.38
2022-09-30T05:40:20.588Z,18.27
2022-09-30T05:42:47.586Z,16.33
2022-09-30T05:45:14.403Z,17.27
2022-09-30T05:47:41.225Z,18.55
2022-09-30T05:50:10.276Z,17.38
2022-09-30T05:52:37.026Z,16.60
2022-09-30T05:55:04.208Z,17.77
2022-09-30T05:57:31.017Z,17.35
2022-09-30T05:59:58.190Z,16.85
2022-09-30T06:02:25.297Z,18.08
2022-09-30T06:04:52.129Z,16.20
2022-09-30T06:07:20.355Z,17.48
2022-09-30T06:09:47.346Z,18.48
2022-09-30T06:12:16.928Z,18.63
2022-09-30T06:14:43.944Z,18.95
2022-09-30T06:17:10.817Z,17.85
2022-09-30T06:19:37.721Z,19.02
2022-09-30T06:22:04.615Z,17.38
2022-09-30T06:24:32.731Z,18.48
2022-09-30T06:26:59.521Z,17.27
2022-09-30T06:29:26.284Z,17.55
2022-09-30T06:31:53.095Z,17.05
2022-09-30T06:34:20.294Z,17.48
2022-09-30T06:36:47.101Z,18.33
2022-09-30T06:39:14.023Z,18.92
2022-09-30T06:41:44.058Z,17.30
2022-09-30T06:44:11.477Z,18.73
2022-09-30T06:46:52.142Z,21.88
2022-09-30T06:49:21.163Z,24.88
2022-09-30T06:51:47.953Z,21.42
2022-09-30T06:54:14.778Z,20.25
2022-09-30T06:56:44.061Z,15.60
2022-09-30T06:59:11.461Z,12.85
2022-09-30T07:01:38.965Z,12.23
2022-09-30T07:04:09.753Z,10.48
2022-09-30T07:06:38.895Z,12.70
2022-09-30T07:09:06.567Z,17.35
2022-09-30T07:11:33.693Z,17.27
2022-09-30T07:14:01.846Z,11.38
2022-09-30T07:16:28.779Z,11.68
2022-09-30T07:18:55.954Z,19.95
2022-09-30T07:21:22.782Z,9.75
2022-09-30T07:23:49.656Z,11.32
2022-09-30T07:26:18.328Z,12.25
2022-09-30T07:28:45.870Z,11.30
2022-09-30T07:31:34.190Z,13.18
2022-09-30T07:34:02.649Z,12.38
2022-09-30T07:36:34.198Z,12.23
2022-09-30T07:39:06.670Z,9.30
2022-09-30T07:41:36.649Z,9.82
2022-09-30T07:44:06.469Z,9.27
2022-09-30T07:46:39.033Z,11.18
2022-09-30T07:49:08.864Z,11.02
2022-09-30T07:51:37.322Z,11.20
2022-09-30T07:54:06.132Z,10.30
2022-09-30T07:56:51.163Z,10.25
2022-09-30T07:59:21.744Z,9.38
2022-09-30T08:01:50.926Z,9.23
2022-09-30T08:04:20.079Z,8.65
2022-09-30T08:06:49.135Z,8.73
2022-09-30T08:09:18.279Z,8.15
2022-09-30T08:11:45.292Z,7.68
2022-09-30T08:14:14.610Z,7.68
2022-09-30T08:16:41.630Z,8.60
2022-09-30T08:19:15.908Z,7.90
2022-09-30T08:21:43.047Z,8.02
2022-09-30T08:24:10.565Z,8.40
2022-09-30T08:26:37.965Z,8.38
2022-09-30T08:29:04.991Z,9.38
2022-09-30T08:31:33.425Z,10.50
2022-09-30T08:34:00.484Z,9.45
2022-09-30T08:36:29.279Z,10.32
2022-09-30T08:38:56.512Z,11.13
2022-09-30T08:41:59.770Z,10.77
2022-09-30T08:44:42.344Z,11.27
2022-09-30T08:47:31.060Z,10.25
2022-09-30T08:50:09.921Z,10.52
2022-09-30T08:52:49.118Z,11.38
2022-09-30T08:55:21.393Z,11.38
2022-09-30T08:57:48.292Z,10.00
2022-09-30T09:00:16.635Z,10.73
2022-09-30T09:02:49.104Z,11.15
2022-09-30T09:05:24.645Z,10.10
2022-09-30T09:08:04.469Z,10.63
2022-09-30T09:10:41.367Z,11.15
2022-09-30T09:13:18.596Z,11.32
2022-09-30T09:16:00.798Z,10.35
2022-09-30T09:18:49.562Z,9.63
2022-09-30T09:21:31.850Z,9.50
2022-09-30T09:24:02.641Z,9.55
2022-09-30T09:26:33.431Z,9.75
2022-09-30T09:29:16.083Z,9.18
2022-09-30T09:31:43.024Z,8.57
2022-09-30T09:34:12.230Z,9.27
2022-09-30T09:36:54.143Z,9.93
2022-09-30T09:39:43.709Z,9.57
2022-09-30T09:42:28.918Z,9.63
2022-09-30T09:45:00.507Z,8.82
2022-09-30T09:47:27.280Z,10.05
2022-09-30T09:49:57.955Z,8.65
2022-09-30T09:52:44.557Z,7.55
2022-09-30T09:55:14.436Z,8.43
2022-09-30T09:57:41.703Z,7.53
2022-09-30T10:00:29.070Z,7.50
2022-09-30T10:03:01.429Z,6.90
2022-09-30T10:05:30.667Z,7.47
2022-09-30T10:08:14.975Z,6.80
2022-09-30T10:10:47.965Z,7.30
2022-09-30T10:13:20.569Z,6.82
2022-09-30T10:15:48.539Z,6.50
2022-09-30T10:18:23.708Z,6.93
2022-09-30T10:20:53.538Z,6.43
2022-09-30T10:23:23.061Z,6.28
2022-09-30T10:26:04.232Z,7.57
2022-09-30T10:28:34.367Z,10.00
2022-09-30T10:31:04.739Z,8.85
2022-09-30T10:33:36.502Z,9.80
2022-09-30T10:36:08.508Z,12.10
2022-09-30T10:38:37.370Z,11.10
2022-09-30T10:41:06.063Z,9.52
2022-09-30T10:43:42.280Z,8.55
2022-09-30T10:46:27.546Z,11.32
2022-09-30T10:48:56.799Z,6.90
2022-09-30T10:51:27.556Z,7.25
2022-09-30T10:53:55.673Z,6.03
2022-09-30T10:56:42.158Z,6.25
2022-09-30T10:59:25.874Z,5.03
2022-09-30T11:01:58.606Z,5.72
2022-09-30T11:04:33.485Z,5.38
2022-09-30T11:07:10.129Z,5.72
2022-09-30T11:09:44.288Z,5.32
2022-09-30T11:12:21.083Z,4.90
2022-09-30T11:14:58.487Z,5.93
2022-09-30T11:17:36.897Z,5.43
2022-09-30T11:20:15.879Z,5.32
2022-09-30T11:22:52.356Z,5.22
2022-09-30T11:25:26.985Z,5.47
2022-09-30T11:28:09.672Z,5.32
2022-09-30T11:30:49.474Z,5.60
2022-09-30T11:33:35.111Z,5.80
2022-09-30T11:36:09.411Z,6.10
2022-09-30T11:39:01.298Z,5.65
2022-09-30T11:41:31.746Z,5.38
2022-09-30T11:44:14.735Z,5.60
2022-09-30T11:47:06.924Z,5.53
2022-09-30T11:49:48.824Z,6.00
2022-09-30T11:52:22.498Z,5.78
2022-09-30T11:55:18.995Z,5.95
2022-09-30T11:57:52.026Z,6.30
2022-09-30T12:00:21.236Z,6.40
2022-09-30T12:02:51.976Z,7.13
2022-09-30T12:05:24.236Z,6.97
2022-09-30T12:07:54.597Z,6.45
2022-09-30T12:10:25.914Z,4.80
2022-09-30T12:12:57.500Z,5.38
2022-09-30T12:15:27.243Z,4.85
2022-09-30T12:17:59.313Z,4.32
2022-09-30T12:20:34.232Z,5.15
2022-09-30T12:23:10.577Z,4.63
2022-09-30T12:25:41.874Z,3.30
2022-09-30T12:28:41.415Z,3.42
2022-09-30T12:31:26.456Z,3.60
2022-09-30T12:34:05.267Z,3.30
2022-09-30T12:36:54.884Z,3.63
2022-09-30T12:39:41.743Z,4.55
2022-09-30T12:42:28.879Z,4.22
2022-09-30T12:45:25.962Z,4.60
2022-09-30T12:47:57.421Z,3.80
2022-09-30T12:50:29.400Z,3.33
2022-09-30T12:53:01.324Z,3.20
2022-09-30T12:55:33.646Z,3.58
2022-09-30T12:58:01.825Z,2.85
2022-09-30T13:00:31.228Z,2.65
2022-09-30T13:03:05.192Z,2.75
2022-09-30T13:06:06.482Z,3.20
2022-09-30T13:08:45.840Z,2.65
2022-09-30T13:11:37.673Z,2.40
2022-09-30T13:14:22.344Z,2.97
2022-09-30T13:17:14.041Z,2.88
2022-09-30T13:19:44.719Z,2.83
2022-09-30T13:22:51.686Z,2.13
2022-09-30T13:25:19.424Z,2.15
2022-09-30T13:27:49.971Z,2.60
2022-09-30T13:30:44.805Z,2.10
2022-09-30T13:33:40.461Z,1.80
2022-09-30T13:36:18.335Z,2.20
2022-09-30T13:38:45.195Z,2.17
2022-09-30T13:41:20.900Z,1.58
2022-09-30T13:44:02.682Z,1.90
2022-09-30T13:46:35.650Z,2.33
2022-09-30T13:49:11.544Z,2.10
2022-09-30T13:51:41.811Z,2.00
2022-09-30T13:54:20.688Z,2.08
2022-09-30T13:56:47.785Z,2.30
2022-09-30T13:59:28.215Z,2.30
2022-09-30T14:02:36.625Z,2.20
2022-09-30T14:05:44.971Z,1.80
2022-09-30T14:08:41.136Z,2.40
2022-09-30T14:11:24.669Z,2.25
2022-09-30T14:14:06.875Z,1.77
2022-09-30T14:16:55.696Z,1.75
2022-09-30T14:19:38.170Z,1.77
2022-09-30T14:22:07.196Z,2.35
2022-09-30T14:24:37.998Z,1.67
2022-09-30T14:27:35.748Z,1.95
2022-09-30T14:30:13.150Z,1.75
2022-09-30T14:32:46.299Z,1.77
2022-09-30T14:35:18.186Z,2.60
2022-09-30T14:37:48.609Z,2.30
2022-09-30T14:40:20.182Z,2.58
2022-09-30T14:42:48.439Z,2.75
2022-09-30T14:45:21.882Z,2.40
2022-09-30T14:47:51.685Z,2.40
2022-09-30T14:50:21.174Z,3.10
2022-09-30T14:52:49.263Z,3.13
2022-09-30T14:55:27.300Z,3.03
2022-09-30T14:57:56.218Z,2.90
2022-09-30T15:00:28.998Z,3.38
2022-09-30T15:02:56.203Z,2.90
2022-09-30T15:05:23.502Z,3.28
2022-09-30T15:07:50.437Z,2.40
2022-09-30T15:10:21.536Z,2.30
2022-09-30T15:12:51.762Z,2.47
2022-09-30T15:15:35.330Z,2.30
2022-09-30T15:18:38.086Z,2.47
2022-09-30T15:21:09.901Z,1.80
2022-09-30T15:23:39.772Z,2.00
2022-09-30T15:26:08.488Z,2.03
2022-09-30T15:28:36.986Z,2.00
2022-09-30T15:31:05.333Z,2.35
2022-09-30T15:33:32.978Z,2.58
2022-09-30T15:36:05.785Z,2.45
2022-09-30T15:38:34.586Z,1.93
2022-09-30T15:41:04.919Z,2.33
2022-09-30T15:43:39.837Z,2.50
2022-09-30T15:46:35.253Z,2.60
2022-09-30T15:49:05.452Z,2.63
2022-09-30T15:51:38.091Z,2.45
2022-09-30T15:54:34.772Z,2.28
2022-09-30T15:57:04.544Z,2.50
2022-09-30T15:59:59.811Z,2.65
2022-09-30T16:02:28.667Z,2.70
2022-09-30T16:04:55.952Z,2.83
2022-09-30T16:07:28.445Z,2.83
2022-09-30T16:09:57.773Z,3.13
2022-09-30T16:12:28.204Z,3.00
2022-09-30T16:14:58.171Z,2.47
2022-09-30T16:17:27.741Z,3.10
2022-09-30T16:19:57.899Z,2.40
2022-09-30T16:22:50.518Z,2.80
2022-09-30T16:25:21.757Z,2.50
2022-09-30T16:27:53.490Z,2.60
2022-09-30T16:30:20.829Z,2.60
2022-09-30T16:32:51.899Z,2.95
2022-09-30T16:35:20.981Z,2.97
2022-09-30T16:37:48.897Z,2.40
2022-09-30T16:40:19.742Z,2.60
2022-09-30T16:42:46.598Z,2.40
2022-09-30T16:45:15.039Z,2.20
2022-09-30T16:47:42.264Z,2.50
2022-09-30T16:50:20.471Z,2.80
2022-09-30T16:52:47.541Z,3.33
2022-09-30T16:57:50.355Z,2.92
2022-09-30T17:00:18.226Z,3.22
2022-09-30T17:02:46.223Z,2.88
2022-09-30T17:05:15.861Z,3.17
2022-09-30T17:07:44.970Z,3.00
2022-09-30T17:10:18.332Z,5.32
2022-09-30T17:12:45.128Z,5.93
2022-09-30T17:15:12.513Z,3.88
2022-09-30T17:17:39.502Z,5.47
2022-09-30T17:20:07.250Z,3.70
2022-09-30T17:22:34.047Z,3.60
2022-09-30T17:25:02.181Z,3.50
2022-09-30T17:27:29.018Z,3.40
2022-09-30T17:29:55.891Z,3.00
2022-09-30T17:32:22.728Z,2.78
2022-09-30T17:34:49.555Z,3.10
2022-09-30T17:37:16.329Z,3.17
2022-09-30T17:39:43.169Z,2.60
2022-09-30T17:42:32.199Z,2.95
2022-09-30T17:44:59.106Z,3.08
2022-09-30T17:47:26.851Z,3.03
2022-09-30T17:49:54.051Z,2.90
2022-09-30T17:52:21.354Z,2.65
2022-09-30T17:54:52.176Z,3.45
2022-09-30T17:57:21.481Z,2.55
2022-09-30T17:59:48.352Z,2.60
2022-09-30T18:02:18.267Z,2.63
2022-09-30T18:04:45.209Z,2.15
2022-09-30T18:07:13.750Z,2.05
2022-09-30T18:09:40.599Z,2.78
2022-09-30T18:12:07.648Z,2.70
2022-09-30T18:14:36.025Z,1.85
2022-09-30T18:17:03.582Z,2.47
2022-09-30T18:19:31.182Z,2.58
2022-09-30T18:21:58.155Z,2.30
2022-09-30T18:24:44.299Z,2.33
2022-09-30T18:27:11.486Z,1.73
2022-09-30T18:29:40.381Z,2.20
2022-09-30T18:32:07.436Z,2.55
2022-09-30T18:34:34.337Z,2.03
2022-09-30T18:37:05.159Z,2.50
2022-09-30T18:39:33.560Z,2.05
2022-09-30T18:42:01.006Z,2.38
2022-09-30T18:44:28.376Z,2.65
2022-09-30T18:46:56.581Z,2.25
2022-09-30T18:49:23.388Z,2.20
2022-09-30T18:51:50.113Z,2.10
2022-09-30T18:54:16.954Z,2.22
2022-09-30T18:56:44.345Z,1.90
2022-09-30T18:59:18.263Z,1.92
2022-09-30T19:01:47.945Z,2.45
2022-09-30T19:04:16.554Z,1.85
2022-09-30T19:06:44.978Z,2.05
2022-09-30T19:09:11.751Z,1.83
2022-09-30T19:11:42.764Z,1.60
2022-09-30T19:14:10.955Z,1.77
2022-09-30T19:16:39.076Z,2.22
2022-09-30T19:19:08.120Z,1.80
2022-09-30T19:21:36.968Z,2.15
2022-09-30T19:24:05.252Z,2.30
2022-09-30T19:26:33.279Z,2.42
2022-09-30T19:29:00.067Z,2.28
2022-09-30T19:31:27.117Z,2.67
2022-09-30T19:33:56.911Z,2.65
2022-09-30T19:39:11.335Z,3.17
2022-09-30T19:41:39.225Z,3.00
2022-09-30T19:44:06.117Z,3.60
2022-09-30T19:46:33.332Z,3.25
2022-09-30T19:49:00.169Z,3.58
2022-09-30T19:51:29.267Z,3.60
2022-09-30T19:54:06.233Z,3.72
2022-09-30T19:56:35.357Z,4.03
2022-09-30T19:59:02.252Z,3.42
2022-09-30T20:01:30.604Z,3.28
2022-09-30T20:04:04.617Z,3.67
2022-09-30T20:06:32.703Z,3.20
2022-09-30T20:09:03.332Z,3.63
2022-09-30T20:11:36.001Z,3.13
2022-09-30T20:14:23.383Z,3.77
2022-09-30T20:16:50.355Z,3.70
2022-09-30T20:19:18.201Z,3.47
2022-09-30T20:21:45.887Z,3.83
2022-09-30T20:24:15.496Z,3.70
2022-09-30T20:26:43.837Z,4.10
2022-09-30T20:29:11.433Z,4.40
2022-09-30T20:31:40.858Z,3.97
2022-09-30T20:34:09.158Z,4.28
2022-09-30T20:36:36.481Z,4.70
2022-09-30T20:39:03.866Z,4.25
2022-09-30T20:41:35.805Z,4.50
2022-09-30T20:44:03.153Z,5.10
2022-09-30T20:46:33.149Z,4.60
2022-09-30T20:49:00.715Z,5.60
2022-09-30T20:51:28.998Z,5.55
2022-09-30T20:53:58.086Z,5.47
2022-09-30T20:56:28.489Z,5.32
2022-09-30T20:59:02.319Z,5.32
2022-09-30T21:01:29.298Z,6.18
2022-09-30T21:03:56.470Z,5.45
2022-09-30T21:06:26.339Z,5.72
2022-09-30T21:08:54.429Z,6.03
2022-09-30T21:11:22.294Z,6.20
2022-09-30T21:13:51.011Z,5.88
2022-09-30T21:16:20.992Z,6.30
2022-09-30T21:18:50.497Z,5.47
2022-09-30T21:21:18.859Z,5.90
2022-09-30T21:23:46.082Z,5.72
2022-09-30T21:26:15.647Z,5.63
2022-09-30T21:28:46.807Z,6.38
2022-09-30T21:31:18.785Z,5.93
2022-09-30T21:33:49.831Z,5.45
2022-09-30T21:36:17.107Z,5.53
2022-09-30T21:38:43.975Z,5.75
2022-09-30T21:41:10.779Z,6.53
2022-09-30T21:43:38.027Z,6.25
2022-09-30T21:46:06.705Z,5.68
2022-09-30T21:48:34.359Z,6.53
2022-09-30T21:51:03.054Z,6.28
2022-09-30T21:53:30.261Z,5.53
2022-09-30T21:56:00.817Z,6.20
2022-09-30T21:58:29.137Z,6.97
2022-09-30T22:00:58.129Z,5.82
2022-09-30T22:03:25.405Z,6.38
2022-09-30T22:05:52.572Z,7.32
2022-09-30T22:08:21.229Z,6.78
2022-09-30T22:10:48.493Z,6.35
2022-09-30T22:13:15.843Z,5.63
2022-09-30T22:15:44.689Z,6.25
2022-09-30T22:18:12.472Z,6.22
2022-09-30T22:20:40.556Z,6.38
2022-09-30T22:23:07.350Z,6.65
2022-09-30T22:25:35.542Z,6.50
2022-09-30T22:28:04.449Z,6.03
2022-09-30T22:30:32.490Z,7.00
2022-09-30T22:33:17.849Z,6.72
2022-09-30T22:36:02.909Z,7.35
2022-09-30T22:38:29.983Z,7.15
2022-09-30T22:40:59.672Z,6.93
2022-09-30T22:43:26.827Z,6.97
2022-09-30T22:46:01.702Z,6.38
2022-09-30T22:48:29.393Z,6.78
2022-09-30T22:50:56.297Z,6.13
2022-09-30T22:53:23.149Z,5.97
2022-09-30T22:55:49.872Z,6.80
2022-09-30T22:58:18.068Z,5.97
2022-09-30T23:00:52.571Z,6.63
2022-09-30T23:03:19.417Z,6.65
2022-09-30T23:05:46.348Z,6.53
2022-09-30T23:08:13.128Z,6.70
2022-09-30T23:10:46.039Z,6.00
2022-09-30T23:13:13.426Z,6.97
2022-09-30T23:15:41.556Z,6.72
2022-09-30T23:18:08.353Z,7.10
2022-09-30T23:20:35.739Z,6.68
2022-09-30T23:23:02.514Z,6.78
2022-09-30T23:25:29.548Z,6.65
2022-09-30T23:27:56.482Z,6.57
2022-09-30T23:30:23.378Z,7.00
2022-09-30T23:32:51.505Z,6.80
2022-09-30T23:35:18.261Z,6.80
2022-09-30T23:37:45.168Z,7.35
2022-09-30T23:40:12.043Z,7.57
2022-09-30T23:42:38.795Z,7.70
2022-09-30T23:45:06.225Z,7.60
2022-09-30T23:47:33.657Z,7.07
2022-09-30T23:50:01.753Z,6.93
2022-09-30T23:52:29.355Z,6.90
2022-09-30T23:54:56.146Z,7.00
2022-09-30T23:57:22.848Z,6.63
2022-09-30T23:59:49.655Z,6.43
